Terminal Aerodrome Forecast
Issued by NWS

Current Version | Previous Version | Text Only | Print | Product List | Glossary On
Versions: 1 2 3 4 5 6 7 8 9 10 11 12 13 14 15 16
832
FTUS46 KSEW 192320
TAFHQM
TAF
KHQM 192320Z 2000/2024 28014G22KT P6SM SCT250
     FM200400 28008KT P6SM BKN010
     FM200800 29006KT 5SM BR OVC006
     FM201800 24009KT P6SM SCT008 BKN015
     FM202100 25013G20KT P6SM SCT250=

USA.gov is the U.S. government's official web portal to all federal, state and local government web resources and services.